createdAt,value
2022-10-09T00:01:28.419Z,9.73
2022-10-09T00:03:56.502Z,9.76
2022-10-09T00:06:26.223Z,9.53
2022-10-09T00:08:53.052Z,9.56
2022-10-09T00:11:24.760Z,9.67
2022-10-09T00:13:51.359Z,9.14
2022-10-09T00:16:18.763Z,9.36
2022-10-09T00:18:45.902Z,9.50
2022-10-09T00:21:20.099Z,9.36
2022-10-09T00:23:47.188Z,9.50
2022-10-09T00:26:13.898Z,9.48
2022-10-09T00:28:40.302Z,9.51
2022-10-09T00:31:08.257Z,9.41
2022-10-09T00:33:36.319Z,9.33
2022-10-09T00:36:09.142Z,9.38
2022-10-09T00:38:35.525Z,9.04
2022-10-09T00:41:01.958Z,9.28
2022-10-09T00:43:45.128Z,9.34
2022-10-09T00:46:25.485Z,9.03
2022-10-09T00:49:03.609Z,9.23
2022-10-09T00:51:31.099Z,9.17
2022-10-09T00:53:58.222Z,9.11
2022-10-09T00:56:25.332Z,8.92
2022-10-09T00:58:54.988Z,9.10
2022-10-09T01:01:21.336Z,8.90
2022-10-09T01:03:47.733Z,8.94
2022-10-09T01:06:30.198Z,9.10
2022-10-09T01:09:18.523Z,8.99
2022-10-09T01:12:23.380Z,8.83
2022-10-09T01:14:58.969Z,8.44
2022-10-09T01:17:33.309Z,8.85
2022-10-09T01:20:27.106Z,8.62
2022-10-09T01:23:18.473Z,8.48
2022-10-09T01:26:15.825Z,8.51
2022-10-09T01:29:04.603Z,8.78
2022-10-09T01:31:33.871Z,8.78
2022-10-09T01:34:01.626Z,8.81
2022-10-09T01:36:30.773Z,8.71
2022-10-09T01:39:03.050Z,8.47
2022-10-09T01:41:29.862Z,8.78
2022-10-09T01:43:56.322Z,8.91
2022-10-09T01:46:30.548Z,8.99
2022-10-09T01:49:12.660Z,9.02
2022-10-09T01:52:12.477Z,9.12
2022-10-09T01:55:03.621Z,9.14
2022-10-09T01:57:52.753Z,9.18
2022-10-09T02:00:19.658Z,9.09
2022-10-09T02:02:48.075Z,8.99
2022-10-09T02:05:22.264Z,8.99
2022-10-09T02:07:49.060Z,9.05
2022-10-09T02:10:18.308Z,9.08
2022-10-09T02:12:51.006Z,8.97
2022-10-09T02:15:17.782Z,9.08
2022-10-09T02:17:48.823Z,8.94
2022-10-09T02:20:35.096Z,9.00
2022-10-09T02:23:06.262Z,8.97
2022-10-09T02:25:33.300Z,8.88
2022-10-09T02:28:00.231Z,8.93
2022-10-09T02:30:35.155Z,8.89
2022-10-09T02:33:01.485Z,8.92
2022-10-09T02:35:27.962Z,8.85
2022-10-09T02:37:54.268Z,8.90
2022-10-09T02:40:20.635Z,8.85
2022-10-09T02:42:47.482Z,8.85
2022-10-09T02:45:14.227Z,8.77
2022-10-09T02:47:40.602Z,8.71
2022-10-09T02:50:07.799Z,8.72
2022-10-09T02:52:34.107Z,8.57
2022-10-09T02:55:00.466Z,8.62
2022-10-09T02:57:26.759Z,8.46
2022-10-09T02:59:53.070Z,8.47
2022-10-09T03:02:19.521Z,8.42
2022-10-09T03:04:46.085Z,8.20
2022-10-09T03:07:12.425Z,8.35
2022-10-09T03:09:38.886Z,8.30
2022-10-09T03:12:05.297Z,8.19
2022-10-09T03:14:31.628Z,8.35
2022-10-09T03:16:58.003Z,8.27
2022-10-09T03:19:24.427Z,8.17
2022-10-09T03:21:50.759Z,8.15
2022-10-09T03:24:17.157Z,8.20
2022-10-09T03:26:43.495Z,8.25
2022-10-09T03:29:09.805Z,8.13
2022-10-09T03:31:53.057Z,7.99
2022-10-09T03:34:19.906Z,7.47
2022-10-09T03:36:46.668Z,7.70
2022-10-09T03:39:12.980Z,7.24
2022-10-09T03:41:39.383Z,7.18
2022-10-09T03:44:05.840Z,7.56
2022-10-09T03:46:32.238Z,7.70
2022-10-09T03:48:58.602Z,7.54
2022-10-09T03:51:24.963Z,7.41
2022-10-09T03:53:51.285Z,7.50
2022-10-09T03:56:17.596Z,7.57
2022-10-09T03:58:43.941Z,7.64
2022-10-09T04:01:10.343Z,7.76
2022-10-09T04:03:36.860Z,7.75
2022-10-09T04:06:03.710Z,7.69
2022-10-09T04:08:30.048Z,8.01
2022-10-09T04:10:57.903Z,7.75
2022-10-09T04:13:24.403Z,8.01
2022-10-09T04:15:52.065Z,8.06
2022-10-09T04:18:18.466Z,8.24
2022-10-09T04:20:50.002Z,8.20
2022-10-09T04:23:16.631Z,7.88
2022-10-09T04:25:42.945Z,7.95
2022-10-09T04:28:09.334Z,7.84
2022-10-09T04:30:35.682Z,7.73
2022-10-09T04:33:02.039Z,7.90
2022-10-09T04:35:28.399Z,7.76
2022-10-09T04:37:54.705Z,7.82
2022-10-09T04:40:21.033Z,7.90
2022-10-09T04:42:47.687Z,7.59
2022-10-09T04:45:14.308Z,7.86
2022-10-09T04:47:40.648Z,7.60
2022-10-09T04:50:07.563Z,7.55
2022-10-09T04:52:33.884Z,7.49
2022-10-09T04:55:00.186Z,7.54
2022-10-09T04:57:26.564Z,7.59
2022-10-09T04:59:52.944Z,7.37
2022-10-09T05:02:19.328Z,7.38
2022-10-09T05:04:46.488Z,7.49
2022-10-09T05:07:12.795Z,7.49
2022-10-09T05:09:39.115Z,7.40
2022-10-09T05:12:05.510Z,7.92
2022-10-09T05:14:31.836Z,7.61
2022-10-09T05:17:13.462Z,7.58
2022-10-09T05:19:40.272Z,8.20
2022-10-09T05:22:06.642Z,8.37
2022-10-09T05:24:32.962Z,8.29
2022-10-09T05:26:59.352Z,8.30
2022-10-09T05:29:25.705Z,8.17
2022-10-09T05:31:52.098Z,8.23
2022-10-09T05:34:18.506Z,8.27
2022-10-09T05:36:44.889Z,8.28
2022-10-09T05:39:11.271Z,8.28
2022-10-09T05:41:37.594Z,8.23
2022-10-09T05:44:04.357Z,8.21
2022-10-09T05:46:30.965Z,8.20
2022-10-09T05:49:00.258Z,8.15
2022-10-09T05:51:31.384Z,8.06
2022-10-09T05:53:58.490Z,8.09
2022-10-09T05:56:24.768Z,7.97
2022-10-09T05:58:59.795Z,7.94
2022-10-09T06:01:29.807Z,7.95
2022-10-09T06:03:57.871Z,7.96
2022-10-09T06:06:26.725Z,7.89
2022-10-09T06:08:53.850Z,7.83
2022-10-09T06:11:28.257Z,7.84
2022-10-09T06:13:56.054Z,7.66
2022-10-09T06:16:25.743Z,7.54
2022-10-09T06:18:53.921Z,7.20
2022-10-09T06:21:20.929Z,7.19
2022-10-09T06:23:50.247Z,7.23
2022-10-09T06:26:16.920Z,7.31
2022-10-09T06:28:43.408Z,7.43
2022-10-09T06:31:21.437Z,7.54
2022-10-09T06:33:49.169Z,7.43
2022-10-09T06:36:20.891Z,7.59
2022-10-09T06:38:47.195Z,7.73
2022-10-09T06:41:15.996Z,7.75
2022-10-09T06:43:43.206Z,7.70
2022-10-09T06:46:12.342Z,7.68
2022-10-09T06:48:40.368Z,7.70
2022-10-09T06:51:15.095Z,7.94
2022-10-09T06:53:46.310Z,8.02
2022-10-09T06:56:13.016Z,8.03
2022-10-09T06:58:39.810Z,8.18
2022-10-09T07:01:10.389Z,8.19
2022-10-09T07:03:38.154Z,8.30
2022-10-09T07:06:15.739Z,8.43
2022-10-09T07:08:44.811Z,8.53
2022-10-09T07:11:22.064Z,8.16
2022-10-09T07:13:50.875Z,7.95
2022-10-09T07:16:23.086Z,7.89
2022-10-09T07:18:49.716Z,8.02
2022-10-09T07:21:16.897Z,7.90
2022-10-09T07:23:43.596Z,8.12
2022-10-09T07:26:22.161Z,8.30
2022-10-09T07:28:49.196Z,8.10
2022-10-09T07:31:16.496Z,8.23
2022-10-09T07:33:43.008Z,8.24
2022-10-09T07:36:10.511Z,8.20
2022-10-09T07:38:36.956Z,8.05
2022-10-09T07:41:06.134Z,7.97
2022-10-09T07:43:35.207Z,8.22
2022-10-09T07:46:03.576Z,8.24
2022-10-09T07:48:30.224Z,8.15
2022-10-09T07:50:57.592Z,8.13
2022-10-09T07:53:23.925Z,8.21
2022-10-09T07:55:50.245Z,8.39
2022-10-09T07:58:17.261Z,8.38
2022-10-09T08:00:44.219Z,8.42
2022-10-09T08:03:11.289Z,8.39
2022-10-09T08:05:37.826Z,8.28
2022-10-09T08:08:04.227Z,8.40
2022-10-09T08:10:31.121Z,8.76
2022-10-09T08:12:57.577Z,8.68
2022-10-09T08:15:23.976Z,8.65
2022-10-09T08:17:53.026Z,8.73
2022-10-09T08:20:19.600Z,8.83
2022-10-09T08:22:46.083Z,8.84
2022-10-09T08:25:12.719Z,8.75
2022-10-09T08:27:39.081Z,8.93
2022-10-09T08:30:05.951Z,8.96
2022-10-09T08:32:32.259Z,8.97
2022-10-09T08:34:58.772Z,9.34
2022-10-09T08:37:25.228Z,9.18
2022-10-09T08:39:51.555Z,9.32
2022-10-09T08:42:33.205Z,9.42
2022-10-09T08:44:59.514Z,9.30
2022-10-09T08:47:50.132Z,9.27
2022-10-09T08:50:20.055Z,9.51
2022-10-09T08:53:13.434Z,9.43
2022-10-09T08:55:49.067Z,9.57
2022-10-09T08:58:18.728Z,9.74
2022-10-09T09:00:52.175Z,9.78
2022-10-09T09:03:50.852Z,9.97
2022-10-09T09:06:42.637Z,10.10
2022-10-09T09:09:28.414Z,10.07
2022-10-09T09:12:04.164Z,10.12
2022-10-09T09:14:33.460Z,10.31
2022-10-09T09:17:09.532Z,10.36
2022-10-09T09:19:57.684Z,10.43
2022-10-09T09:22:25.064Z,10.44
2022-10-09T09:24:54.113Z,10.43
2022-10-09T09:27:27.389Z,10.65
2022-10-09T09:30:12.419Z,10.51
2022-10-09T09:32:51.902Z,10.54
2022-10-09T09:35:46.859Z,10.55
2022-10-09T09:38:14.518Z,10.74
2022-10-09T09:40:45.913Z,10.79
2022-10-09T09:43:24.714Z,10.70
2022-10-09T09:45:56.157Z,10.69
2022-10-09T09:48:35.581Z,10.79
2022-10-09T09:51:26.939Z,10.76
2022-10-09T09:53:56.156Z,10.65
2022-10-09T09:56:53.343Z,10.65
2022-10-09T09:59:38.537Z,10.62
2022-10-09T10:02:13.753Z,10.54
2022-10-09T10:04:57.527Z,10.51
2022-10-09T10:07:35.405Z,10.66
2022-10-09T10:10:25.684Z,10.66
2022-10-09T10:12:52.568Z,10.81
2022-10-09T10:15:31.956Z,10.71
2022-10-09T10:18:00.607Z,10.96
2022-10-09T10:20:29.450Z,10.74
2022-10-09T10:22:58.209Z,10.81
2022-10-09T10:25:29.622Z,10.83
2022-10-09T10:28:03.589Z,10.69
2022-10-09T10:30:30.714Z,10.75
2022-10-09T10:33:01.064Z,10.74
2022-10-09T10:35:31.344Z,10.76
2022-10-09T10:38:15.422Z,11.01
2022-10-09T10:40:56.458Z,10.92
2022-10-09T10:43:41.012Z,10.97
2022-10-09T10:46:25.215Z,10.97
2022-10-09T10:48:52.186Z,10.96
2022-10-09T10:51:45.157Z,10.96
2022-10-09T10:54:17.278Z,10.96
2022-10-09T10:56:56.205Z,11.04
2022-10-09T10:59:43.197Z,11.07
2022-10-09T11:02:09.494Z,11.09
2022-10-09T11:05:03.015Z,11.22
2022-10-09T11:07:50.097Z,11.27
2022-10-09T11:10:38.808Z,11.38
2022-10-09T11:13:24.569Z,11.54
2022-10-09T11:15:56.653Z,11.56
2022-10-09T11:18:41.307Z,11.64
2022-10-09T11:21:23.817Z,11.78
2022-10-09T11:24:09.932Z,11.74
2022-10-09T11:26:39.195Z,11.80
2022-10-09T11:29:13.197Z,11.78
2022-10-09T11:31:45.187Z,11.79
2022-10-09T11:34:40.377Z,11.84
2022-10-09T11:37:20.370Z,11.87
2022-10-09T11:39:46.908Z,11.89
2022-10-09T11:42:18.617Z,11.84
2022-10-09T11:44:50.200Z,11.91
2022-10-09T11:47:39.770Z,11.92
2022-10-09T11:50:39.369Z,11.84
2022-10-09T11:53:10.604Z,11.81
2022-10-09T11:55:37.255Z,11.85
2022-10-09T11:58:18.581Z,11.81
2022-10-09T12:00:46.981Z,11.94
2022-10-09T12:03:40.541Z,11.88
2022-10-09T12:06:14.090Z,11.78
2022-10-09T12:08:55.247Z,11.79
2022-10-09T12:11:22.613Z,11.79
2022-10-09T12:14:06.978Z,11.74
2022-10-09T12:16:45.313Z,11.65
2022-10-09T12:19:20.789Z,11.61
2022-10-09T12:22:07.444Z,11.56
2022-10-09T12:24:56.034Z,11.55
2022-10-09T12:27:28.764Z,11.66
2022-10-09T12:30:04.707Z,11.61
2022-10-09T12:32:36.653Z,11.59
2022-10-09T12:35:15.001Z,11.70
2022-10-09T12:37:41.320Z,11.67
2022-10-09T12:40:17.030Z,11.74
2022-10-09T12:42:44.950Z,11.69
2022-10-09T12:45:18.120Z,11.65
2022-10-09T12:47:45.074Z,11.71
2022-10-09T12:50:30.720Z,11.76
2022-10-09T12:52:59.579Z,11.71
2022-10-09T12:55:44.722Z,11.82
2022-10-09T12:58:19.220Z,11.68
2022-10-09T13:00:51.714Z,11.77
2022-10-09T13:03:38.164Z,11.85
2022-10-09T13:06:08.284Z,11.91
2022-10-09T13:08:37.783Z,11.95
2022-10-09T13:11:20.491Z,12.05
2022-10-09T13:13:51.833Z,12.06
2022-10-09T13:16:18.542Z,12.12
2022-10-09T13:18:58.534Z,12.25
2022-10-09T13:21:35.141Z,12.30
2022-10-09T13:24:10.102Z,12.27
2022-10-09T13:26:39.045Z,12.25
2022-10-09T13:29:07.344Z,12.28
2022-10-09T13:31:36.507Z,12.29
2022-10-09T13:34:13.096Z,12.29
2022-10-09T13:36:40.083Z,12.35
2022-10-09T13:39:06.575Z,12.35
2022-10-09T13:41:33.729Z,11.78
2022-10-09T13:44:00.202Z,11.97
2022-10-09T13:46:26.633Z,11.95
2022-10-09T13:48:53.118Z,11.87
2022-10-09T13:51:19.524Z,11.80
2022-10-09T13:53:45.951Z,11.78
2022-10-09T13:56:12.294Z,11.66
2022-10-09T13:58:38.947Z,11.64
2022-10-09T14:01:05.650Z,11.61
2022-10-09T14:03:34.611Z,11.61
2022-10-09T14:06:03.848Z,11.60
2022-10-09T14:08:31.163Z,11.66
2022-10-09T14:11:00.718Z,11.66
2022-10-09T14:13:27.758Z,11.77
2022-10-09T14:15:54.154Z,11.71
2022-10-09T14:18:20.906Z,11.74
2022-10-09T14:20:47.657Z,11.78
2022-10-09T14:23:14.117Z,11.70
2022-10-09T14:25:40.766Z,11.61
2022-10-09T14:28:07.494Z,11.52
2022-10-09T14:30:34.053Z,11.49
2022-10-09T14:33:00.422Z,11.42
2022-10-09T14:35:26.861Z,11.50
2022-10-09T14:37:53.316Z,11.49
2022-10-09T14:40:19.708Z,11.45
2022-10-09T14:42:46.397Z,11.42
2022-10-09T14:45:13.097Z,11.38
2022-10-09T14:47:39.512Z,11.38
2022-10-09T14:50:06.417Z,11.31
2022-10-09T14:52:32.842Z,11.21
2022-10-09T14:54:59.237Z,11.14
2022-10-09T14:57:25.635Z,11.13
2022-10-09T14:59:52.616Z,11.13
2022-10-09T15:02:19.323Z,11.07
2022-10-09T15:04:45.803Z,11.04
2022-10-09T15:07:12.146Z,11.01
2022-10-09T15:09:38.547Z,11.10
2022-10-09T15:12:05.242Z,11.33
2022-10-09T15:14:31.766Z,11.38
2022-10-09T15:16:58.135Z,11.49
2022-10-09T15:19:24.576Z,11.51
2022-10-09T15:21:50.927Z,11.63
2022-10-09T15:24:17.251Z,11.72
2022-10-09T15:26:44.183Z,11.73
2022-10-09T15:29:12.030Z,11.81
2022-10-09T15:31:41.130Z,11.86
2022-10-09T15:34:10.128Z,11.90
2022-10-09T15:36:39.936Z,12.00
2022-10-09T15:39:07.789Z,12.04
2022-10-09T15:41:37.719Z,12.06
2022-10-09T15:44:07.136Z,12.07
2022-10-09T15:46:33.917Z,12.04
2022-10-09T15:49:00.430Z,12.06
2022-10-09T15:51:26.843Z,12.06
2022-10-09T15:53:53.241Z,12.06
2022-10-09T15:56:22.858Z,11.87
2022-10-09T15:58:50.140Z,11.86
2022-10-09T16:01:17.442Z,11.78
2022-10-09T16:03:44.882Z,11.76
2022-10-09T16:06:15.907Z,11.78
2022-10-09T16:08:42.951Z,11.69
2022-10-09T16:11:11.900Z,11.62
2022-10-09T16:13:41.065Z,11.60
2022-10-09T16:16:11.667Z,11.58
2022-10-09T16:18:38.113Z,11.42
2022-10-09T16:21:10.664Z,11.45
2022-10-09T16:23:37.221Z,11.31
2022-10-09T16:26:04.811Z,11.35
2022-10-09T16:28:32.971Z,11.23
2022-10-09T16:30:59.616Z,11.20
2022-10-09T16:33:26.057Z,11.14
2022-10-09T16:35:52.681Z,9.78
2022-10-09T16:38:19.354Z,10.59
2022-10-09T16:41:03.116Z,10.62
2022-10-09T16:43:33.478Z,10.73
2022-10-09T16:46:15.323Z,10.86
2022-10-09T16:48:41.627Z,10.84
2022-10-09T16:51:13.224Z,10.72
2022-10-09T16:53:40.282Z,10.68
2022-10-09T16:56:08.715Z,10.53
2022-10-09T16:58:35.107Z,10.49
2022-10-09T17:01:06.106Z,10.53
2022-10-09T17:03:35.995Z,10.51
2022-10-09T17:06:08.046Z,10.52
2022-10-09T17:08:34.570Z,10.44
2022-10-09T17:11:01.034Z,10.39
2022-10-09T17:13:27.462Z,10.43
2022-10-09T17:15:53.833Z,10.45
2022-10-09T17:18:21.113Z,10.38
2022-10-09T17:20:47.474Z,10.40
2022-10-09T17:23:13.853Z,10.41
2022-10-09T17:25:42.021Z,10.40
2022-10-09T17:28:08.645Z,10.35
2022-10-09T17:30:40.439Z,10.32
2022-10-09T17:33:07.133Z,10.26
2022-10-09T17:35:33.596Z,10.23
2022-10-09T17:38:00.009Z,10.17
2022-10-09T17:40:26.464Z,10.16
2022-10-09T17:42:52.855Z,10.17
2022-10-09T17:45:19.298Z,9.88
2022-10-09T17:47:45.697Z,9.86
2022-10-09T17:50:12.332Z,9.85
2022-10-09T17:52:38.675Z,9.90
2022-10-09T17:55:05.476Z,9.73
2022-10-09T17:57:31.824Z,9.76
2022-10-09T17:59:58.160Z,9.79
2022-10-09T18:02:24.545Z,9.79
2022-10-09T18:04:51.040Z,9.70
2022-10-09T18:07:19.417Z,9.52
2022-10-09T18:09:45.757Z,9.36
2022-10-09T18:12:12.130Z,9.21
2022-10-09T18:14:38.488Z,9.20
2022-10-09T18:17:04.841Z,9.20
2022-10-09T18:19:31.238Z,9.11
2022-10-09T18:21:57.623Z,9.18
2022-10-09T18:24:24.072Z,8.83
2022-10-09T18:26:50.611Z,8.92
2022-10-09T18:29:16.928Z,8.76
2022-10-09T18:31:43.336Z,8.74
2022-10-09T18:34:10.838Z,8.74
2022-10-09T18:36:38.141Z,8.63
2022-10-09T18:39:10.320Z,8.54
2022-10-09T18:41:37.672Z,8.44
2022-10-09T18:44:05.216Z,8.46
2022-10-09T18:46:39.333Z,8.27
2022-10-09T18:49:11.055Z,8.44
2022-10-09T18:51:39.028Z,8.28
2022-10-09T18:54:07.027Z,8.41
2022-10-09T18:56:36.408Z,8.16
2022-10-09T18:59:10.701Z,7.95
2022-10-09T19:01:37.240Z,7.90
2022-10-09T19:04:04.464Z,8.23
2022-10-09T19:06:31.076Z,7.99
2022-10-09T19:09:00.811Z,8.09
2022-10-09T19:11:29.744Z,8.25
2022-10-09T19:13:56.425Z,8.15
2022-10-09T19:16:24.198Z,8.16
2022-10-09T19:18:53.101Z,8.31
2022-10-09T19:21:20.061Z,8.37
2022-10-09T19:23:48.735Z,8.29
2022-10-09T19:26:16.067Z,8.68
2022-10-09T19:28:42.698Z,8.66
2022-10-09T19:31:10.283Z,8.89
2022-10-09T19:33:37.902Z,8.87
2022-10-09T19:36:04.818Z,9.13
2022-10-09T19:38:31.542Z,9.12
2022-10-09T19:41:12.514Z,9.14
2022-10-09T19:43:39.283Z,9.22
2022-10-09T19:46:11.796Z,9.22
2022-10-09T19:48:38.310Z,9.26
2022-10-09T19:51:07.099Z,9.31
2022-10-09T19:53:34.498Z,9.28
2022-10-09T19:56:01.220Z,9.20
2022-10-09T19:58:27.575Z,9.28
2022-10-09T20:00:53.996Z,9.26
2022-10-09T20:03:20.362Z,9.30
2022-10-09T20:05:46.687Z,9.19
2022-10-09T20:08:13.059Z,9.04
2022-10-09T20:10:39.477Z,9.10
2022-10-09T20:13:06.030Z,8.86
2022-10-09T20:15:32.398Z,8.78
2022-10-09T20:17:58.841Z,8.78
2022-10-09T20:20:26.898Z,8.69
2022-10-09T20:22:54.152Z,8.49
2022-10-09T20:25:20.760Z,8.45
2022-10-09T20:27:47.287Z,8.49
2022-10-09T20:30:13.705Z,8.16
2022-10-09T20:32:40.150Z,8.22
2022-10-09T20:35:07.069Z,8.28
2022-10-09T20:37:34.858Z,8.19
2022-10-09T20:40:01.283Z,8.27
2022-10-09T20:42:27.598Z,8.05
2022-10-09T20:44:53.932Z,7.99
2022-10-09T20:47:20.265Z,8.29
2022-10-09T20:49:48.365Z,8.15
2022-10-09T20:52:14.708Z,8.20
2022-10-09T20:54:41.050Z,8.18
2022-10-09T20:57:07.335Z,8.11
2022-10-09T20:59:33.698Z,8.10
2022-10-09T21:02:00.046Z,8.25
2022-10-09T21:04:26.409Z,8.24
2022-10-09T21:06:52.833Z,8.16
2022-10-09T21:09:19.164Z,7.99
2022-10-09T21:11:45.824Z,8.17
2022-10-09T21:14:12.209Z,8.23
2022-10-09T21:16:38.772Z,8.26
2022-10-09T21:19:05.829Z,8.25
2022-10-09T21:21:33.583Z,8.22
2022-10-09T21:24:00.531Z,8.17
2022-10-09T21:26:28.557Z,8.02
2022-10-09T21:28:59.332Z,7.92
2022-10-09T21:31:28.593Z,7.83
2022-10-09T21:33:55.875Z,7.58
2022-10-09T21:37:16.010Z,7.82
2022-10-09T21:39:33.987Z,7.92
2022-10-09T21:42:00.361Z,8.08
2022-10-09T21:44:27.511Z,8.16
2022-10-09T21:46:53.903Z,8.06
2022-10-09T21:49:23.233Z,8.08
2022-10-09T21:51:49.638Z,8.25
2022-10-09T21:54:16.265Z,8.18
2022-10-09T21:56:42.801Z,8.36
2022-10-09T21:59:11.334Z,8.32
2022-10-09T22:01:37.835Z,8.55
2022-10-09T22:04:04.669Z,8.66
2022-10-09T22:06:31.107Z,8.74
2022-10-09T22:08:58.888Z,8.68
2022-10-09T22:11:25.322Z,8.77
2022-10-09T22:13:51.634Z,8.77
2022-10-09T22:16:17.962Z,8.79
2022-10-09T22:18:44.412Z,8.82
2022-10-09T22:21:14.288Z,8.77
2022-10-09T22:23:41.365Z,8.76
2022-10-09T22:26:11.609Z,8.84
2022-10-09T22:28:38.112Z,8.77
2022-10-09T22:31:06.286Z,8.69
2022-10-09T22:33:34.616Z,8.73
2022-10-09T22:36:20.592Z,8.71
2022-10-09T22:38:47.096Z,8.66
2022-10-09T22:41:17.574Z,8.54
2022-10-09T22:43:49.227Z,8.50
2022-10-09T22:46:17.092Z,8.40
2022-10-09T22:48:44.810Z,8.35
2022-10-09T22:51:13.864Z,8.42
2022-10-09T22:53:41.747Z,8.02
2022-10-09T22:56:11.873Z,8.08
2022-10-09T22:58:38.243Z,8.06
2022-10-09T23:01:07.617Z,7.95
2022-10-09T23:03:34.273Z,7.96
2022-10-09T23:06:14.410Z,7.87
2022-10-09T23:08:42.560Z,7.99
2022-10-09T23:11:09.525Z,8.18
2022-10-09T23:13:36.247Z,8.08
2022-10-09T23:16:05.004Z,8.21
2022-10-09T23:18:31.826Z,8.14
2022-10-09T23:20:58.559Z,8.11
2022-10-09T23:23:24.975Z,7.82
2022-10-09T23:25:51.295Z,7.91
2022-10-09T23:28:17.693Z,7.84
2022-10-09T23:30:44.024Z,7.96
2022-10-09T23:33:10.344Z,7.82
2022-10-09T23:35:43.617Z,7.82
2022-10-09T23:38:10.002Z,7.96
2022-10-09T23:40:36.316Z,7.86
2022-10-09T23:43:02.675Z,7.72
2022-10-09T23:45:29.027Z,7.82
2022-10-09T23:47:55.352Z,7.54
2022-10-09T23:50:21.705Z,7.65
2022-10-09T23:52:48.392Z,7.76
2022-10-09T23:55:14.980Z,7.45
2022-10-09T23:57:41.372Z,7.38
